sensor_id;sensor_type;location;lat;lon;timestamp;pressure;altitude;pressure_sealevel;temperature;humidity
23616;BME280;11985;49.404;7.734;2023-04-09T00:02:34;97978.19;;;6.04;100.00
23616;BME280;11985;49.404;7.734;2023-04-09T00:07:36;97982.22;;;5.91;100.00
23616;BME280;11985;49.404;7.734;2023-04-09T00:12:39;97981.50;;;5.80;100.00
23616;BME280;11985;49.404;7.734;2023-04-09T00:17:41;97976.09;;;5.74;100.00
23616;BME280;11985;49.404;7.734;2023-04-09T00:22:42;97974.59;;;5.63;100.00
23616;BME280;11985;49.404;7.734;2023-04-09T00:27:45;97972.25;;;5.52;100.00
23616;BME280;11985;49.404;7.734;2023-04-09T00:32:47;97965.50;;;5.41;100.00
23616;BME280;11985;49.404;7.734;2023-04-09T00:37:48;97969.56;;;5.36;100.00
23616;BME280;11985;49.404;7.734;2023-04-09T00:42:51;97974.75;;;5.27;100.00
23616;BME280;11985;49.404;7.734;2023-04-09T00:47:53;97970.44;;;5.18;100.00
23616;BME280;11985;49.404;7.734;2023-04-09T00:52:55;97969.44;;;5.11;100.00
23616;BME280;11985;49.404;7.734;2023-04-09T00:57:58;97970.00;;;5.05;100.00
23616;BME280;11985;49.404;7.734;2023-04-09T01:02:59;97970.94;;;4.96;100.00
23616;BME280;11985;49.404;7.734;2023-04-09T01:08:07;97973.25;;;4.99;100.00
23616;BME280;11985;49.404;7.734;2023-04-09T01:13:17;97976.91;;;5.06;100.00
23616;BME280;11985;49.404;7.734;2023-04-09T01:18:23;97975.97;;;5.15;100.00
23616;BME280;11985;49.404;7.734;2023-04-09T01:23:33;97968.81;;;5.17;100.00
23616;BME280;11985;49.404;7.734;2023-04-09T01:28:40;97968.19;;;5.23;100.00
23616;BME280;11985;49.404;7.734;2023-04-09T01:33:43;97961.00;;;5.25;100.00
23616;BME280;11985;49.404;7.734;2023-04-09T01:38:46;97968.91;;;5.34;100.00
23616;BME280;11985;49.404;7.734;2023-04-09T01:43:51;97978.72;;;5.40;100.00
23616;BME280;11985;49.404;7.734;2023-04-09T01:48:54;97966.03;;;5.45;100.00
23616;BME280;11985;49.404;7.734;2023-04-09T01:53:56;97969.28;;;5.47;100.00
23616;BME280;11985;49.404;7.734;2023-04-09T01:58:59;97972.72;;;5.47;100.00
23616;BME280;11985;49.404;7.734;2023-04-09T02:04:02;97966.03;;;5.45;100.00
23616;BME280;11985;49.404;7.734;2023-04-09T02:09:06;97967.13;;;5.42;100.00
23616;BME280;11985;49.404;7.734;2023-04-09T02:14:10;97970.88;;;5.40;100.00
23616;BME280;11985;49.404;7.734;2023-04-09T02:19:12;97968.28;;;5.40;100.00
23616;BME280;11985;49.404;7.734;2023-04-09T02:24:14;97971.53;;;5.42;100.00
23616;BME280;11985;49.404;7.734;2023-04-09T02:29:17;97967.94;;;5.43;100.00
23616;BME280;11985;49.404;7.734;2023-04-09T02:34:19;97969.59;;;5.44;100.00
23616;BME280;11985;49.404;7.734;2023-04-09T02:39:20;97968.31;;;5.48;100.00
23616;BME280;11985;49.404;7.734;2023-04-09T02:44:23;97963.91;;;5.48;100.00
23616;BME280;11985;49.404;7.734;2023-04-09T02:49:25;97970.25;;;5.46;100.00
23616;BME280;11985;49.404;7.734;2023-04-09T02:54:26;97965.66;;;5.40;100.00
23616;BME280;11985;49.404;7.734;2023-04-09T02:59:29;97968.56;;;5.37;100.00
23616;BME280;11985;49.404;7.734;2023-04-09T03:04:32;97967.91;;;5.35;100.00
23616;BME280;11985;49.404;7.734;2023-04-09T03:09:33;97956.13;;;5.30;100.00
23616;BME280;11985;49.404;7.734;2023-04-09T03:14:36;97955.47;;;5.28;100.00
23616;BME280;11985;49.404;7.734;2023-04-09T03:19:38;97943.69;;;5.24;100.00
23616;BME280;11985;49.404;7.734;2023-04-09T03:24:39;97940.72;;;5.19;100.00
23616;BME280;11985;49.404;7.734;2023-04-09T03:29:42;97943.63;;;5.16;100.00
23616;BME280;11985;49.404;7.734;2023-04-09T03:34:43;97938.09;;;5.11;100.00
23616;BME280;11985;49.404;7.734;2023-04-09T03:39:45;97933.47;;;5.05;100.00
23616;BME280;11985;49.404;7.734;2023-04-09T03:44:48;97936.56;;;5.00;100.00
23616;BME280;11985;49.404;7.734;2023-04-09T03:49:49;97933.59;;;4.95;100.00
23616;BME280;11985;49.404;7.734;2023-04-09T03:54:51;97931.44;;;4.91;100.00
23616;BME280;11985;49.404;7.734;2023-04-09T03:59:54;97930.41;;;4.84;100.00
23616;BME280;11985;49.404;7.734;2023-04-09T04:04:55;97934.28;;;4.80;100.00
23616;BME280;11985;49.404;7.734;2023-04-09T04:09:57;97927.72;;;4.75;100.00
23616;BME280;11985;49.404;7.734;2023-04-09T04:15:00;97928.25;;;4.79;100.00
23616;BME280;11985;49.404;7.734;2023-04-09T04:20:02;97936.44;;;4.84;100.00
23616;BME280;11985;49.404;7.734;2023-04-09T04:25:04;97930.09;;;4.87;100.00
23616;BME280;11985;49.404;7.734;2023-04-09T04:30:08;97933.16;;;4.82;100.00
23616;BME280;11985;49.404;7.734;2023-04-09T04:35:09;97937.56;;;4.82;100.00
23616;BME280;11985;49.404;7.734;2023-04-09T04:40:11;97940.53;;;4.87;100.00
23616;BME280;11985;49.404;7.734;2023-04-09T04:45:14;97945.13;;;4.93;100.00
23616;BME280;11985;49.404;7.734;2023-04-09T04:50:15;97939.25;;;4.91;100.00
23616;BME280;11985;49.404;7.734;2023-04-09T04:55:17;97949.34;;;4.86;100.00
23616;BME280;11985;49.404;7.734;2023-04-09T05:00:20;97944.66;;;4.71;100.00
23616;BME280;11985;49.404;7.734;2023-04-09T05:05:22;97946.56;;;4.61;100.00
23616;BME280;11985;49.404;7.734;2023-04-09T05:10:24;97942.91;;;4.54;100.00
23616;BME280;11985;49.404;7.734;2023-04-09T05:15:27;97950.13;;;4.60;100.00
23616;BME280;11985;49.404;7.734;2023-04-09T05:20:29;97957.34;;;4.66;100.00
23616;BME280;11985;49.404;7.734;2023-04-09T05:25:30;97951.53;;;4.72;100.00
23616;BME280;11985;49.404;7.734;2023-04-09T05:30:33;97956.41;;;4.67;100.00
23616;BME280;11985;49.404;7.734;2023-04-09T05:35:37;97957.13;;;4.60;100.00
23616;BME280;11985;49.404;7.734;2023-04-09T05:40:38;97959.25;;;4.56;100.00
23616;BME280;11985;49.404;7.734;2023-04-09T05:45:42;97957.88;;;4.52;100.00
23616;BME280;11985;49.404;7.734;2023-04-09T05:50:48;97964.47;;;4.56;100.00
23616;BME280;11985;49.404;7.734;2023-04-09T05:55:49;97964.72;;;4.71;100.00
23616;BME280;11985;49.404;7.734;2023-04-09T06:00:52;97966.28;;;4.82;100.00
23616;BME280;11985;49.404;7.734;2023-04-09T06:05:54;97974.53;;;4.95;100.00
23616;BME280;11985;49.404;7.734;2023-04-09T06:10:56;97968.47;;;5.20;100.00
23616;BME280;11985;49.404;7.734;2023-04-09T06:15:58;97960.00;;;5.52;100.00
23616;BME280;11985;49.404;7.734;2023-04-09T06:21:01;97970.75;;;5.83;100.00
23616;BME280;11985;49.404;7.734;2023-04-09T06:26:02;97965.63;;;6.16;100.00
23616;BME280;11985;49.404;7.734;2023-04-09T06:31:05;97970.91;;;6.41;100.00
23616;BME280;11985;49.404;7.734;2023-04-09T06:36:07;97975.34;;;6.65;100.00
23616;BME280;11985;49.404;7.734;2023-04-09T06:41:11;97983.03;;;6.91;100.00
23616;BME280;11985;49.404;7.734;2023-04-09T06:46:15;97989.25;;;7.06;100.00
23616;BME280;11985;49.404;7.734;2023-04-09T06:51:20;97984.91;;;7.46;100.00
23616;BME280;11985;49.404;7.734;2023-04-09T06:56:21;97981.50;;;7.76;100.00
23616;BME280;11985;49.404;7.734;2023-04-09T07:01:24;97982.09;;;7.94;99.76
23616;BME280;11985;49.404;7.734;2023-04-09T07:06:27;97989.22;;;7.78;98.92
23616;BME280;11985;49.404;7.734;2023-04-09T07:11:28;97986.16;;;8.05;97.50
23616;BME280;11985;49.404;7.734;2023-04-09T07:16:31;97983.41;;;8.53;95.77
23616;BME280;11985;49.404;7.734;2023-04-09T07:21:33;97986.00;;;8.98;92.47
23616;BME280;11985;49.404;7.734;2023-04-09T07:26:35;97985.94;;;9.07;89.90
23616;BME280;11985;49.404;7.734;2023-04-09T07:31:38;97981.25;;;9.17;88.54
23616;BME280;11985;49.404;7.734;2023-04-09T07:36:39;97986.44;;;9.25;86.17
23616;BME280;11985;49.404;7.734;2023-04-09T07:41:41;97988.16;;;9.47;85.47
23616;BME280;11985;49.404;7.734;2023-04-09T07:46:44;97988.44;;;9.52;84.11
23616;BME280;11985;49.404;7.734;2023-04-09T07:51:46;97985.09;;;9.73;82.53
23616;BME280;11985;49.404;7.734;2023-04-09T07:56:47;97979.38;;;9.70;82.21
23616;BME280;11985;49.404;7.734;2023-04-09T08:01:50;97981.00;;;9.86;81.45
23616;BME280;11985;49.404;7.734;2023-04-09T08:06:52;97986.72;;;9.89;81.55
23616;BME280;11985;49.404;7.734;2023-04-09T08:11:53;97981.25;;;9.91;82.32
23616;BME280;11985;49.404;7.734;2023-04-09T08:16:59;97991.91;;;10.19;80.36
23616;BME280;11985;49.404;7.734;2023-04-09T08:22:01;97991.56;;;10.22;78.93
23616;BME280;11985;49.404;7.734;2023-04-09T08:27:02;97988.28;;;10.35;74.50
23616;BME280;11985;49.404;7.734;2023-04-09T08:32:08;97997.00;;;10.35;72.63
23616;BME280;11985;49.404;7.734;2023-04-09T08:37:13;98002.38;;;10.48;72.34
23616;BME280;11985;49.404;7.734;2023-04-09T08:42:15;98007.25;;;10.66;70.61
23616;BME280;11985;49.404;7.734;2023-04-09T08:47:19;98009.53;;;10.03;70.60
23616;BME280;11985;49.404;7.734;2023-04-09T08:52:29;98003.81;;;10.29;69.69
23616;BME280;11985;49.404;7.734;2023-04-09T08:57:36;97996.38;;;10.54;67.59
23616;BME280;11985;49.404;7.734;2023-04-09T09:03:02;98006.91;;;10.76;64.88
23616;BME280;11985;49.404;7.734;2023-04-09T09:08:05;98015.72;;;10.62;63.29
23616;BME280;11985;49.404;7.734;2023-04-09T09:13:17;98014.97;;;10.68;62.11
23616;BME280;11985;49.404;7.734;2023-04-09T09:18:36;98017.13;;;11.07;60.42
23616;BME280;11985;49.404;7.734;2023-04-09T09:23:39;98004.00;;;11.14;59.19
23616;BME280;11985;49.404;7.734;2023-04-09T09:28:41;97998.97;;;11.19;58.02
23616;BME280;11985;49.404;7.734;2023-04-09T09:33:44;97991.31;;;11.24;57.31
23616;BME280;11985;49.404;7.734;2023-04-09T09:38:52;97994.50;;;11.47;55.03
23616;BME280;11985;49.404;7.734;2023-04-09T09:43:53;97988.78;;;11.72;56.09
23616;BME280;11985;49.404;7.734;2023-04-09T09:48:57;97993.81;;;11.67;55.71
23616;BME280;11985;49.404;7.734;2023-04-09T09:54:00;97987.56;;;11.40;55.76
23616;BME280;11985;49.404;7.734;2023-04-09T09:59:06;97981.19;;;11.27;56.28
23616;BME280;11985;49.404;7.734;2023-04-09T10:04:13;97988.78;;;11.16;56.94
23616;BME280;11985;49.404;7.734;2023-04-09T10:09:15;97979.03;;;11.09;57.95
23616;BME280;11985;49.404;7.734;2023-04-09T10:14:17;97977.34;;;11.30;57.73
23616;BME280;11985;49.404;7.734;2023-04-09T10:19:21;97970.38;;;11.50;57.18
23616;BME280;11985;49.404;7.734;2023-04-09T10:24:23;97974.28;;;11.96;57.02
23616;BME280;11985;49.404;7.734;2023-04-09T10:29:27;97963.41;;;12.19;56.40
23616;BME280;11985;49.404;7.734;2023-04-09T10:34:34;97967.56;;;12.87;55.66
23616;BME280;11985;49.404;7.734;2023-04-09T10:39:38;97963.50;;;12.98;52.96
23616;BME280;11985;49.404;7.734;2023-04-09T10:44:41;97969.81;;;12.71;51.35
23616;BME280;11985;49.404;7.734;2023-04-09T10:49:45;97967.09;;;12.37;49.80
23616;BME280;11985;49.404;7.734;2023-04-09T10:54:49;97966.47;;;12.29;50.35
23616;BME280;11985;49.404;7.734;2023-04-09T10:59:52;97964.28;;;12.39;50.03
23616;BME280;11985;49.404;7.734;2023-04-09T11:05:03;97954.66;;;12.18;50.06
23616;BME280;11985;49.404;7.734;2023-04-09T11:10:08;97959.81;;;12.59;49.74
23616;BME280;11985;49.404;7.734;2023-04-09T11:15:14;97966.38;;;12.83;49.68
23616;BME280;11985;49.404;7.734;2023-04-09T11:20:19;97965.53;;;12.69;48.98
23616;BME280;11985;49.404;7.734;2023-04-09T11:25:24;97962.25;;;12.54;48.50
23616;BME280;11985;49.404;7.734;2023-04-09T11:30:26;97963.03;;;12.35;49.44
23616;BME280;11985;49.404;7.734;2023-04-09T11:35:32;97960.63;;;12.53;49.34
23616;BME280;11985;49.404;7.734;2023-04-09T11:40:34;97963.47;;;12.45;48.02
23616;BME280;11985;49.404;7.734;2023-04-09T11:45:36;97955.94;;;12.42;47.93
23616;BME280;11985;49.404;7.734;2023-04-09T11:50:40;97953.63;;;12.12;48.26
23616;BME280;11985;49.404;7.734;2023-04-09T11:55:41;97957.28;;;12.05;49.23
23616;BME280;11985;49.404;7.734;2023-04-09T12:00:43;97952.06;;;12.31;49.49
23616;BME280;11985;49.404;7.734;2023-04-09T12:05:46;97949.06;;;12.81;49.09
23616;BME280;11985;49.404;7.734;2023-04-09T12:10:48;97946.63;;;12.86;48.50
23616;BME280;11985;49.404;7.734;2023-04-09T12:15:50;97941.97;;;13.01;49.03
23616;BME280;11985;49.404;7.734;2023-04-09T12:20:54;97943.16;;;13.18;49.49
23616;BME280;11985;49.404;7.734;2023-04-09T12:25:56;97948.47;;;13.25;47.74
23616;BME280;11985;49.404;7.734;2023-04-09T12:31:00;97941.97;;;13.28;47.85
23616;BME280;11985;49.404;7.734;2023-04-09T12:36:04;97948.44;;;13.45;47.57
23616;BME280;11985;49.404;7.734;2023-04-09T12:41:05;97948.03;;;13.15;47.55
23616;BME280;11985;49.404;7.734;2023-04-09T12:46:07;97937.88;;;12.92;47.65
23616;BME280;11985;49.404;7.734;2023-04-09T12:51:10;97936.25;;;12.51;47.35
23616;BME280;11985;49.404;7.734;2023-04-09T12:56:12;97942.28;;;12.19;47.40
23616;BME280;11985;49.404;7.734;2023-04-09T13:01:14;97940.69;;;12.31;47.47
23616;BME280;11985;49.404;7.734;2023-04-09T13:06:17;97943.53;;;12.49;47.56
23616;BME280;11985;49.404;7.734;2023-04-09T13:11:19;97934.03;;;12.75;47.86
23616;BME280;11985;49.404;7.734;2023-04-09T13:16:21;97930.53;;;13.20;46.65
23616;BME280;11985;49.404;7.734;2023-04-09T13:21:23;97927.31;;;12.92;46.40
23616;BME280;11985;49.404;7.734;2023-04-09T13:26:25;97928.53;;;12.56;46.64
23616;BME280;11985;49.404;7.734;2023-04-09T13:31:27;97939.50;;;12.53;47.45
23616;BME280;11985;49.404;7.734;2023-04-09T13:36:29;97923.25;;;12.56;47.29
23616;BME280;11985;49.404;7.734;2023-04-09T13:41:31;97928.13;;;12.59;47.72
23616;BME280;11985;49.404;7.734;2023-04-09T13:46:33;97921.41;;;12.57;46.91
23616;BME280;11985;49.404;7.734;2023-04-09T13:51:36;97917.97;;;12.56;47.34
23616;BME280;11985;49.404;7.734;2023-04-09T13:56:38;97918.34;;;12.60;46.87
23616;BME280;11985;49.404;7.734;2023-04-09T14:01:39;97917.97;;;12.50;46.86
23616;BME280;11985;49.404;7.734;2023-04-09T14:06:43;97913.88;;;12.34;47.39
23616;BME280;11985;49.404;7.734;2023-04-09T14:11:44;97904.34;;;12.66;47.59
23616;BME280;11985;49.404;7.734;2023-04-09T14:16:46;97918.78;;;12.90;46.96
23616;BME280;11985;49.404;7.734;2023-04-09T14:21:49;97912.69;;;12.69;47.22
23616;BME280;11985;49.404;7.734;2023-04-09T14:26:52;97913.91;;;13.00;46.59
23616;BME280;11985;49.404;7.734;2023-04-09T14:31:53;97906.97;;;12.99;46.62
23616;BME280;11985;49.404;7.734;2023-04-09T14:36:58;97893.34;;;13.02;46.85
23616;BME280;11985;49.404;7.734;2023-04-09T14:41:59;97894.19;;;12.83;46.80
23616;BME280;11985;49.404;7.734;2023-04-09T14:47:01;97899.66;;;12.88;47.33
23616;BME280;11985;49.404;7.734;2023-04-09T14:52:04;97887.72;;;13.63;47.62
23616;BME280;11985;49.404;7.734;2023-04-09T14:57:05;97878.13;;;14.07;45.63
23616;BME280;11985;49.404;7.734;2023-04-09T15:02:07;97876.66;;;14.43;44.76
23616;BME280;11985;49.404;7.734;2023-04-09T15:07:10;97870.59;;;14.92;44.50
23616;BME280;11985;49.404;7.734;2023-04-09T15:12:12;97867.03;;;15.23;43.61
23616;BME280;11985;49.404;7.734;2023-04-09T15:17:13;97868.34;;;15.14;42.21
23616;BME280;11985;49.404;7.734;2023-04-09T15:22:16;97866.34;;;14.66;41.56
23616;BME280;11985;49.404;7.734;2023-04-09T15:27:18;97873.44;;;13.64;41.84
23616;BME280;11985;49.404;7.734;2023-04-09T15:32:20;97870.25;;;13.49;43.26
23616;BME280;11985;49.404;7.734;2023-04-09T15:37:23;97857.34;;;14.04;43.83
23616;BME280;11985;49.404;7.734;2023-04-09T15:42:24;97853.28;;;14.65;43.91
23616;BME280;11985;49.404;7.734;2023-04-09T15:47:26;97844.16;;;15.04;42.01
23616;BME280;11985;49.404;7.734;2023-04-09T15:52:29;97845.34;;;15.63;41.34
23616;BME280;11985;49.404;7.734;2023-04-09T15:57:30;97848.16;;;15.68;40.44
23616;BME280;11985;49.404;7.734;2023-04-09T16:02:32;97848.88;;;16.05;39.83
23616;BME280;11985;49.404;7.734;2023-04-09T16:07:35;97842.19;;;16.68;38.88
23616;BME280;11985;49.404;7.734;2023-04-09T16:12:37;97850.19;;;16.26;38.28
23616;BME280;11985;49.404;7.734;2023-04-09T16:17:39;97853.69;;;15.97;38.04
23616;BME280;11985;49.404;7.734;2023-04-09T16:22:41;97845.25;;;16.42;37.98
23616;BME280;11985;49.404;7.734;2023-04-09T16:27:43;97842.03;;;18.64;36.47
23616;BME280;11985;49.404;7.734;2023-04-09T16:32:44;97847.72;;;20.38;34.05
23616;BME280;11985;49.404;7.734;2023-04-09T16:37:48;97836.03;;;21.29;31.91
23616;BME280;11985;49.404;7.734;2023-04-09T16:42:51;97845.56;;;21.04;31.12
23616;BME280;11985;49.404;7.734;2023-04-09T16:47:52;97842.72;;;21.84;30.49
23616;BME280;11985;49.404;7.734;2023-04-09T16:52:56;97841.03;;;24.16;28.69
23616;BME280;11985;49.404;7.734;2023-04-09T16:58:00;97844.94;;;24.68;27.09
23616;BME280;11985;49.404;7.734;2023-04-09T17:03:02;97838.38;;;24.50;26.42
23616;BME280;11985;49.404;7.734;2023-04-09T17:08:07;97840.91;;;23.17;26.07
23616;BME280;11985;49.404;7.734;2023-04-09T17:13:09;97833.59;;;18.84;28.06
23616;BME280;11985;49.404;7.734;2023-04-09T17:18:11;97842.75;;;16.05;31.42
23616;BME280;11985;49.404;7.734;2023-04-09T17:23:14;97834.47;;;14.73;33.84
23616;BME280;11985;49.404;7.734;2023-04-09T17:28:15;97832.72;;;13.65;36.25
23616;BME280;11985;49.404;7.734;2023-04-09T17:33:17;97844.72;;;13.03;38.13
23616;BME280;11985;49.404;7.734;2023-04-09T17:38:20;97851.28;;;12.54;39.77
23616;BME280;11985;49.404;7.734;2023-04-09T17:43:24;97858.78;;;12.24;41.10
23616;BME280;11985;49.404;7.734;2023-04-09T17:48:26;97857.72;;;11.99;42.31
23616;BME280;11985;49.404;7.734;2023-04-09T17:53:29;97858.03;;;11.76;43.49
23616;BME280;11985;49.404;7.734;2023-04-09T17:58:30;97857.91;;;11.43;45.90
23616;BME280;11985;49.404;7.734;2023-04-09T18:03:32;97860.38;;;11.09;47.79
23616;BME280;11985;49.404;7.734;2023-04-09T18:08:35;97863.28;;;10.87;49.42
23616;BME280;11985;49.404;7.734;2023-04-09T18:13:36;97857.75;;;10.75;50.96
23616;BME280;11985;49.404;7.734;2023-04-09T18:18:39;97856.66;;;10.63;51.92
23616;BME280;11985;49.404;7.734;2023-04-09T18:23:42;97854.41;;;10.38;53.14
23616;BME280;11985;49.404;7.734;2023-04-09T18:28:43;97843.75;;;10.03;54.01
23616;BME280;11985;49.404;7.734;2023-04-09T18:33:45;97852.91;;;9.71;55.09
23616;BME280;11985;49.404;7.734;2023-04-09T18:38:49;97856.16;;;9.37;56.14
23616;BME280;11985;49.404;7.734;2023-04-09T18:43:50;97865.06;;;9.07;57.52
23616;BME280;11985;49.404;7.734;2023-04-09T18:48:52;97870.28;;;8.77;58.52
23616;BME280;11985;49.404;7.734;2023-04-09T18:53:55;97875.44;;;8.56;59.54
23616;BME280;11985;49.404;7.734;2023-04-09T18:58:56;97876.78;;;8.29;60.64
23616;BME280;11985;49.404;7.734;2023-04-09T19:03:58;97883.28;;;8.10;61.66
23616;BME280;11985;49.404;7.734;2023-04-09T19:09:01;97878.50;;;7.90;62.98
23616;BME280;11985;49.404;7.734;2023-04-09T19:14:03;97878.59;;;7.74;63.65
23616;BME280;11985;49.404;7.734;2023-04-09T19:19:05;97883.03;;;7.74;64.15
23616;BME280;11985;49.404;7.734;2023-04-09T19:24:08;97878.94;;;7.71;64.60
23616;BME280;11985;49.404;7.734;2023-04-09T19:29:10;97874.09;;;7.60;65.02
23616;BME280;11985;49.404;7.734;2023-04-09T19:34:11;97869.91;;;7.43;65.54
23616;BME280;11985;49.404;7.734;2023-04-09T19:39:15;97873.28;;;7.20;66.38
23616;BME280;11985;49.404;7.734;2023-04-09T19:44:17;97879.28;;;6.90;66.98
23616;BME280;11985;49.404;7.734;2023-04-09T19:49:19;97884.38;;;6.67;68.63
23616;BME280;11985;49.404;7.734;2023-04-09T19:54:22;97889.13;;;6.55;69.86
23616;BME280;11985;49.404;7.734;2023-04-09T19:59:24;97887.50;;;6.46;71.17
23616;BME280;11985;49.404;7.734;2023-04-09T20:04:25;97885.53;;;6.31;71.82
23616;BME280;11985;49.404;7.734;2023-04-09T20:09:30;97886.19;;;6.17;73.38
23616;BME280;11985;49.404;7.734;2023-04-09T20:14:32;97882.25;;;6.05;74.18
23616;BME280;11985;49.404;7.734;2023-04-09T20:19:33;97873.75;;;5.95;75.18
23616;BME280;11985;49.404;7.734;2023-04-09T20:24:36;97881.22;;;5.90;75.91
23616;BME280;11985;49.404;7.734;2023-04-09T20:29:38;97882.75;;;6.00;76.22
23616;BME280;11985;49.404;7.734;2023-04-09T20:34:39;97876.06;;;6.06;76.52
23616;BME280;11985;49.404;7.734;2023-04-09T20:39:42;97861.00;;;6.00;76.24
23616;BME280;11985;49.404;7.734;2023-04-09T20:44:44;97862.94;;;5.90;77.22
23616;BME280;11985;49.404;7.734;2023-04-09T20:49:46;97861.25;;;5.72;77.94
23616;BME280;11985;49.404;7.734;2023-04-09T20:54:51;97856.13;;;5.54;78.83
23616;BME280;11985;49.404;7.734;2023-04-09T20:59:52;97860.50;;;5.38;79.31
23616;BME280;11985;49.404;7.734;2023-04-09T21:04:56;97857.16;;;5.19;80.28
23616;BME280;11985;49.404;7.734;2023-04-09T21:09:59;97862.03;;;5.06;81.45
23616;BME280;11985;49.404;7.734;2023-04-09T21:15:06;97858.03;;;4.94;82.43
23616;BME280;11985;49.404;7.734;2023-04-09T21:20:08;97845.56;;;4.80;82.89
23616;BME280;11985;49.404;7.734;2023-04-09T21:25:11;97852.84;;;4.68;83.71
23616;BME280;11985;49.404;7.734;2023-04-09T21:30:12;97859.78;;;4.59;85.14
23616;BME280;11985;49.404;7.734;2023-04-09T21:35:14;97865.09;;;4.49;86.32
23616;BME280;11985;49.404;7.734;2023-04-09T21:40:17;97857.38;;;4.40;87.02
23616;BME280;11985;49.404;7.734;2023-04-09T21:45:19;97859.91;;;4.32;87.77
23616;BME280;11985;49.404;7.734;2023-04-09T21:50:21;97856.28;;;4.24;88.89
23616;BME280;11985;49.404;7.734;2023-04-09T21:55:24;97851.69;;;4.18;90.05
23616;BME280;11985;49.404;7.734;2023-04-09T22:00:25;97849.97;;;4.09;90.48
23616;BME280;11985;49.404;7.734;2023-04-09T22:05:28;97843.34;;;3.97;90.99
23616;BME280;11985;49.404;7.734;2023-04-09T22:10:31;97843.13;;;3.90;91.51
23616;BME280;11985;49.404;7.734;2023-04-09T22:15:33;97844.53;;;3.85;92.51
23616;BME280;11985;49.404;7.734;2023-04-09T22:20:35;97839.56;;;3.74;93.33
23616;BME280;11985;49.404;7.734;2023-04-09T22:25:38;97844.38;;;3.68;94.21
23616;BME280;11985;49.404;7.734;2023-04-09T22:30:39;97852.09;;;3.60;94.63
23616;BME280;11985;49.404;7.734;2023-04-09T22:35:41;97851.59;;;3.57;95.53
23616;BME280;11985;49.404;7.734;2023-04-09T22:40:45;97861.41;;;3.45;96.05
23616;BME280;11985;49.404;7.734;2023-04-09T22:45:50;97859.38;;;3.39;96.91
23616;BME280;11985;49.404;7.734;2023-04-09T22:50:51;97861.03;;;3.40;97.59
23616;BME280;11985;49.404;7.734;2023-04-09T22:55:57;97855.13;;;3.38;97.95
23616;BME280;11985;49.404;7.734;2023-04-09T23:00:59;97854.47;;;3.36;98.47
23616;BME280;11985;49.404;7.734;2023-04-09T23:06:01;97854.47;;;3.36;99.22
23616;BME280;11985;49.404;7.734;2023-04-09T23:11:04;97859.13;;;3.32;99.44
23616;BME280;11985;49.404;7.734;2023-04-09T23:16:07;97858.84;;;3.35;99.72
23616;BME280;11985;49.404;7.734;2023-04-09T23:21:09;97853.09;;;3.32;99.90
23616;BME280;11985;49.404;7.734;2023-04-09T23:26:13;97852.72;;;3.27;100.00
23616;BME280;11985;49.404;7.734;2023-04-09T23:31:14;97853.19;;;3.22;100.00
23616;BME280;11985;49.404;7.734;2023-04-09T23:36:16;97847.97;;;3.22;100.00
23616;BME280;11985;49.404;7.734;2023-04-09T23:41:19;97855.53;;;3.15;100.00
23616;BME280;11985;49.404;7.734;2023-04-09T23:46:21;97842.25;;;3.09;100.00
23616;BME280;11985;49.404;7.734;2023-04-09T23:51:22;97839.97;;;3.06;100.00
23616;BME280;11985;49.404;7.734;2023-04-09T23:56:26;97837.41;;;2.96;100.00
